Time;durP1;ratioP1;P1;durP2;ratioP2;P2;SDS_P1;SDS_P2;PMS_P1;PMS_P2;Temp;Humidity;BMP_temperature;BMP_pressure;BME280_temperature;BME280_humidity;BME280_pressure;Samples;Min_cycle;Max_cycle;Signal;HPM_P1;HPM_P2
2022/03/14 00:00:20;;;;;;;15.13;12.07;;;13.90;34.50;;;;;;5026046;28;20200;-46
2022/03/14 00:02:47;;;;;;;17.40;13.13;;;13.90;34.90;;;;;;5022152;28;20209;-46
2022/03/14 00:05:15;;;;;;;14.87;12.30;;;13.90;35.10;;;;;;5027665;28;20491;-45
2022/03/14 00:07:44;;;;;;;16.67;12.10;;;13.90;35.40;;;;;;5024489;28;20455;-46
2022/03/14 00:10:13;;;;;;;16.67;13.10;;;13.90;35.40;;;;;;5024264;28;20439;-46
2022/03/14 00:12:40;;;;;;;19.53;12.17;;;13.90;35.10;;;;;;5023920;28;20985;-46
2022/03/14 00:15:09;;;;;;;16.33;12.13;;;14.00;35.00;;;;;;5022810;28;20494;-46
2022/03/14 00:17:34;;;;;;;15.60;12.63;;;13.90;35.00;;;;;;5023843;28;20505;-48
2022/03/14 00:20:04;;;;;;;14.13;11.43;;;13.90;35.00;;;;;;5019383;28;20468;-47
2022/03/14 00:22:30;;;;;;;15.20;12.50;;;13.90;35.20;;;;;;5026517;28;20190;-46
2022/03/14 00:24:56;;;;;;;17.30;11.47;;;13.80;35.20;;;;;;5034869;28;20492;-46
2022/03/14 00:27:21;;;;;;;12.30;10.90;;;13.70;35.10;;;;;;5024650;28;20532;-48
2022/03/14 00:29:47;;;;;;;17.30;12.63;;;13.60;35.10;;;;;;5020428;28;20605;-47
2022/03/14 00:32:13;;;;;;;18.73;11.97;;;13.70;35.20;;;;;;5024573;28;20194;-46
2022/03/14 00:34:38;;;;;;;15.27;12.00;;;13.60;35.30;;;;;;5023264;28;20223;-48
2022/03/14 00:37:04;;;;;;;15.43;12.03;;;13.60;35.30;;;;;;5020982;28;20243;-46
2022/03/14 00:39:30;;;;;;;16.30;12.60;;;13.60;35.20;;;;;;5024496;28;20189;-46
2022/03/14 00:41:55;;;;;;;15.13;12.00;;;13.70;35.10;;;;;;5021110;28;20607;-47
2022/03/14 00:44:21;;;;;;;15.50;12.43;;;13.70;35.20;;;;;;5026346;28;20684;-46
2022/03/14 00:46:47;;;;;;;14.27;10.67;;;13.70;35.10;;;;;;5026138;28;20197;-47
2022/03/14 00:49:13;;;;;;;17.03;14.07;;;13.70;35.40;;;;;;5021334;28;20233;-46
2022/03/14 00:51:40;;;;;;;23.60;17.50;;;13.70;35.40;;;;;;5029214;28;20193;-46
2022/03/14 00:54:06;;;;;;;29.03;17.00;;;13.70;35.50;;;;;;5022574;28;20444;-46
2022/03/14 00:56:32;;;;;;;16.70;13.13;;;13.70;35.60;;;;;;5024914;28;20962;-45
2022/03/14 00:59:01;;;;;;;14.87;11.30;;;13.70;35.50;;;;;;5024513;28;20530;-46
2022/03/14 01:01:27;;;;;;;17.27;12.83;;;13.70;35.20;;;;;;5022059;28;20672;-47
2022/03/14 01:03:53;;;;;;;14.90;12.10;;;13.70;35.10;;;;;;5023457;28;20577;-45
2022/03/14 01:06:19;;;;;;;17.93;12.07;;;13.70;35.00;;;;;;5023661;28;20197;-48
2022/03/14 01:08:45;;;;;;;17.43;11.83;;;13.80;35.10;;;;;;5020783;28;20794;-46
2022/03/14 01:11:11;;;;;;;18.03;12.80;;;13.80;35.20;;;;;;5026968;28;20451;-46
2022/03/14 01:13:37;;;;;;;13.87;11.80;;;13.80;35.30;;;;;;5022711;28;20280;-47
2022/03/14 01:16:03;;;;;;;15.37;12.13;;;13.80;36.60;;;;;;5026620;28;20553;-47
2022/03/14 01:18:29;;;;;;;14.77;10.90;;;13.80;36.20;;;;;;5019597;28;20510;-50
2022/03/14 01:20:55;;;;;;;13.93;11.70;;;13.70;36.10;;;;;;5019826;28;20926;-47
2022/03/14 01:23:21;;;;;;;15.20;11.80;;;13.70;36.00;;;;;;5024814;28;20516;-48
2022/03/14 01:25:47;;;;;;;15.80;12.30;;;13.60;35.90;;;;;;5027366;28;20272;-45
2022/03/14 01:28:12;;;;;;;20.00;12.27;;;13.60;35.70;;;;;;5025112;28;20196;-49
2022/03/14 01:30:39;;;;;;;17.60;11.83;;;13.60;35.30;;;;;;5021267;28;20451;-46
2022/03/14 01:33:04;;;;;;;14.77;11.93;;;13.70;35.20;;;;;;5026893;28;20583;-46
2022/03/14 01:35:30;;;;;;;16.50;11.90;;;13.80;35.40;;;;;;5025195;28;20454;-46
2022/03/14 01:37:57;;;;;;;14.63;11.63;;;13.90;35.40;;;;;;5022442;28;20193;-48
2022/03/14 01:40:24;;;;;;;14.90;11.70;;;13.90;35.20;;;;;;5026882;28;20284;-46
2022/03/14 01:42:50;;;;;;;17.33;12.80;;;13.90;34.90;;;;;;5021737;28;20448;-46
2022/03/14 01:45:17;;;;;;;15.47;11.80;;;13.90;35.00;;;;;;5026693;28;20456;-45
2022/03/14 01:47:44;;;;;;;16.83;12.20;;;14.00;35.60;;;;;;5023667;28;20458;-46
2022/03/14 01:50:10;;;;;;;18.07;12.50;;;14.00;36.30;;;;;;5021038;28;20523;-45
2022/03/14 01:52:36;;;;;;;14.77;11.93;;;13.80;37.90;;;;;;5024687;28;20455;-47
2022/03/14 01:55:03;;;;;;;14.80;11.83;;;13.90;37.80;;;;;;5019585;28;20440;-46
2022/03/14 01:57:32;;;;;;;16.33;12.83;;;14.00;37.80;;;;;;5021824;28;20928;-46
2022/03/14 01:59:59;;;;;;;17.33;13.50;;;14.10;37.70;;;;;;5021034;28;20448;-46
2022/03/14 02:02:24;;;;;;;14.00;11.33;;;14.20;38.10;;;;;;5021485;28;20482;-46
2022/03/14 02:04:50;;;;;;;18.30;11.30;;;14.20;38.10;;;;;;5021606;28;20527;-46
2022/03/14 02:07:15;;;;;;;16.70;11.27;;;14.20;38.20;;;;;;5019289;28;20539;-45
2022/03/14 02:09:41;;;;;;;16.40;12.10;;;14.30;38.30;;;;;;5025660;28;20637;-46
2022/03/14 02:12:08;;;;;;;15.57;12.70;;;14.40;38.70;;;;;;5021081;28;20305;-47
2022/03/14 02:14:39;;;;;;;14.83;11.87;;;14.40;39.00;;;;;;5024841;28;20594;-45
2022/03/14 02:17:15;;;;;;;14.97;12.60;;;14.40;39.40;;;;;;5021620;28;21050;-46
2022/03/14 02:19:41;;;;;;;15.50;13.20;;;14.50;39.70;;;;;;5034008;28;20470;-47
2022/03/14 02:22:13;;;;;;;16.20;12.83;;;14.50;40.30;;;;;;5016951;28;20440;-46
2022/03/14 02:24:46;;;;;;;15.27;12.57;;;14.60;40.40;;;;;;5028676;28;20518;-47
2022/03/14 02:27:13;;;;;;;15.20;12.53;;;14.60;40.60;;;;;;5023925;28;20432;-46
2022/03/14 02:29:39;;;;;;;15.37;12.37;;;14.60;40.60;;;;;;5027111;28;20900;-46
2022/03/14 02:32:06;;;;;;;18.40;13.73;;;14.60;41.00;;;;;;5026804;28;20431;-46
2022/03/14 02:34:32;;;;;;;19.00;13.10;;;14.70;41.30;;;;;;5025351;28;20470;-45
2022/03/14 02:36:58;;;;;;;20.80;12.40;;;14.70;41.60;;;;;;5024816;28;20441;-46
2022/03/14 02:39:24;;;;;;;16.97;13.07;;;14.80;42.40;;;;;;5023278;28;20205;-45
2022/03/14 02:41:50;;;;;;;19.90;13.47;;;14.80;43.10;;;;;;5023148;28;20521;-46
2022/03/14 02:44:15;;;;;;;16.00;12.80;;;14.90;43.80;;;;;;5032580;28;20487;-46
2022/03/14 02:46:42;;;;;;;15.53;12.37;;;14.90;44.10;;;;;;5025848;28;20185;-46
2022/03/14 02:49:09;;;;;;;13.27;11.00;;;14.90;45.00;;;;;;5024710;28;20300;-47
2022/03/14 02:51:38;;;;;;;14.33;9.90;;;14.90;46.20;;;;;;5025522;28;20447;-47
2022/03/14 02:54:05;;;;;;;12.87;10.37;;;15.00;47.30;;;;;;5027145;28;20432;-45
2022/03/14 02:56:32;;;;;;;11.03;9.37;;;15.00;47.90;;;;;;5027653;28;20431;-46
2022/03/14 02:58:58;;;;;;;8.50;7.40;;;15.00;48.40;;;;;;5027809;28;20444;-46
2022/03/14 03:01:23;;;;;;;9.57;7.20;;;15.00;49.30;;;;;;5024569;28;20446;-46
2022/03/14 03:03:50;;;;;;;6.37;5.67;;;15.00;51.60;;;;;;5028398;28;20216;-46
2022/03/14 03:06:17;;;;;;;7.47;6.00;;;15.00;52.50;;;;;;5026948;28;20840;-47
2022/03/14 03:08:44;;;;;;;7.13;5.50;;;14.90;53.80;;;;;;5019476;28;20455;-47
2022/03/14 03:11:12;;;;;;;5.27;4.53;;;14.90;54.40;;;;;;5025237;28;20493;-46
2022/03/14 03:13:41;;;;;;;5.93;4.13;;;14.90;55.50;;;;;;5026413;28;20470;-46
2022/03/14 03:16:08;;;;;;;4.97;4.17;;;14.90;56.00;;;;;;5026910;28;20444;-46
2022/03/14 03:18:36;;;;;;;4.60;3.33;;;14.90;56.20;;;;;;5024575;28;20444;-46
2022/03/14 03:21:02;;;;;;;4.30;3.77;;;14.80;57.40;;;;;;5026845;28;20479;-45
2022/03/14 03:23:29;;;;;;;4.00;3.60;;;14.80;57.50;;;;;;5020042;28;20496;-46
2022/03/14 03:25:55;;;;;;;4.60;3.33;;;14.90;57.40;;;;;;5025639;28;20490;-46
2022/03/14 03:28:21;;;;;;;5.23;4.07;;;14.90;57.70;;;;;;5021846;28;20435;-46
2022/03/14 03:30:46;;;;;;;3.93;3.40;;;14.80;57.80;;;;;;5025566;28;20499;-46
2022/03/14 03:33:12;;;;;;;4.60;3.03;;;14.90;57.70;;;;;;5029568;28;20232;-46
2022/03/14 03:35:38;;;;;;;3.90;3.00;;;14.90;57.90;;;;;;5024225;28;20198;-46
2022/03/14 03:38:03;;;;;;;5.87;4.43;;;14.90;57.90;;;;;;5026726;28;20566;-46
2022/03/14 03:40:29;;;;;;;8.87;7.97;;;14.90;57.90;;;;;;5020940;28;20198;-45
2022/03/14 03:42:55;;;;;;;13.57;10.10;;;14.90;57.70;;;;;;5025238;28;20308;-45
2022/03/14 03:45:21;;;;;;;12.53;10.53;;;14.90;57.30;;;;;;5029889;28;20543;-45
2022/03/14 03:47:47;;;;;;;13.97;11.40;;;14.90;56.60;;;;;;5028655;28;20185;-46
2022/03/14 03:50:12;;;;;;;14.43;11.33;;;14.80;56.10;;;;;;5026954;28;20193;-45
2022/03/14 03:52:38;;;;;;;14.93;10.50;;;14.80;55.90;;;;;;5028515;28;20460;-48
2022/03/14 03:55:05;;;;;;;14.30;12.10;;;14.70;56.10;;;;;;5025435;28;20570;-45
2022/03/14 03:57:31;;;;;;;16.03;12.80;;;14.20;56.10;;;;;;5022621;28;20250;-45
2022/03/14 03:59:57;;;;;;;16.07;12.97;;;14.10;57.00;;;;;;5018998;28;20458;-45
2022/03/14 04:02:23;;;;;;;16.00;12.60;;;14.20;57.10;;;;;;5021562;28;20460;-48
2022/03/14 04:04:50;;;;;;;14.23;11.03;;;14.30;57.20;;;;;;5024153;28;20483;-45
2022/03/14 04:07:23;;;;;;;15.17;11.97;;;14.30;57.20;;;;;;5022242;28;20204;-45
2022/03/14 04:09:56;;;;;;;13.07;11.17;;;14.40;57.30;;;;;;5022330;28;20449;-45
2022/03/14 04:12:26;;;;;;;11.17;9.57;;;14.40;57.60;;;;;;5023733;28;20779;-45
2022/03/14 04:14:53;;;;;;;18.70;10.80;;;14.40;57.70;;;;;;5017865;28;20440;-46
2022/03/14 04:17:19;;;;;;;11.67;9.20;;;14.40;57.70;;;;;;5023611;28;20445;-45
2022/03/14 04:19:45;;;;;;;13.83;11.43;;;14.40;57.90;;;;;;5025266;28;20514;-46
2022/03/14 04:22:13;;;;;;;15.97;10.50;;;14.30;58.50;;;;;;5022016;28;20564;-45
2022/03/14 04:24:38;;;;;;;16.30;11.60;;;14.30;58.40;;;;;;5023215;28;20526;-46
2022/03/14 04:27:04;;;;;;;14.53;9.63;;;14.40;58.30;;;;;;5026652;28;20445;-45
2022/03/14 04:29:30;;;;;;;14.00;10.30;;;14.40;58.50;;;;;;5020549;28;20198;-46
2022/03/14 04:31:56;;;;;;;11.90;10.50;;;14.30;59.20;;;;;;5023306;28;21912;-47
2022/03/14 04:34:22;;;;;;;12.73;10.43;;;14.30;59.20;;;;;;5023922;28;20471;-46
2022/03/14 04:36:50;;;;;;;11.07;8.00;;;14.30;59.40;;;;;;5028716;28;20178;-46
2022/03/14 04:39:17;;;;;;;9.33;8.33;;;14.30;59.60;;;;;;5026114;28;20239;-45
2022/03/14 04:41:43;;;;;;;10.20;7.57;;;14.30;59.60;;;;;;5017860;28;20511;-46
2022/03/14 04:44:09;;;;;;;16.40;11.90;;;14.30;59.90;;;;;;5020461;28;20491;-46
2022/03/14 04:46:35;;;;;;;19.10;14.90;;;14.30;60.20;;;;;;5025056;28;20619;-48
2022/03/14 04:49:02;;;;;;;19.83;13.70;;;14.20;60.10;;;;;;5022693;28;20526;-45
2022/03/14 04:51:28;;;;;;;15.50;13.10;;;14.20;60.10;;;;;;5017500;28;20448;-46
2022/03/14 04:53:53;;;;;;;17.80;12.13;;;14.20;59.80;;;;;;5023489;28;20444;-46
2022/03/14 04:56:19;;;;;;;17.73;13.13;;;14.30;59.40;;;;;;5020776;28;20798;-45
2022/03/14 04:58:44;;;;;;;17.90;11.60;;;14.30;59.10;;;;;;5017885;28;20284;-47
2022/03/14 05:01:10;;;;;;;15.07;12.40;;;14.30;59.30;;;;;;5017118;28;20193;-46
2022/03/14 05:03:36;;;;;;;16.17;11.70;;;14.30;59.50;;;;;;5024632;28;20229;-46
2022/03/14 05:06:01;;;;;;;17.97;11.50;;;14.30;59.60;;;;;;5024042;28;20324;-46
2022/03/14 05:08:27;;;;;;;16.80;12.50;;;14.30;59.80;;;;;;5020000;28;20221;-47
2022/03/14 05:10:52;;;;;;;17.20;12.50;;;14.20;60.00;;;;;;5021990;28;20228;-50
2022/03/14 05:13:19;;;;;;;15.70;11.60;;;14.30;60.00;;;;;;5022158;28;20197;-48
2022/03/14 05:15:44;;;;;;;14.13;12.03;;;14.30;60.40;;;;;;5021149;28;20220;-46
2022/03/14 05:18:10;;;;;;;14.97;10.80;;;14.30;60.70;;;;;;5022615;28;20935;-47
2022/03/14 05:20:37;;;;;;;14.73;11.70;;;14.30;60.50;;;;;;5023778;28;20351;-45
2022/03/14 05:23:03;;;;;;;12.67;11.10;;;14.30;60.40;;;;;;5025708;28;20188;-46
2022/03/14 05:25:30;;;;;;;16.23;10.63;;;14.30;60.20;;;;;;5023495;28;20962;-45
2022/03/14 05:27:56;;;;;;;19.50;11.23;;;14.30;60.40;;;;;;5022737;28;20805;-46
2022/03/14 05:30:22;;;;;;;11.63;10.43;;;14.30;60.80;;;;;;5027542;28;20439;-46
2022/03/14 05:32:48;;;;;;;13.17;11.77;;;14.30;60.80;;;;;;5020712;28;20542;-45
2022/03/14 05:35:15;;;;;;;16.70;12.20;;;14.30;60.70;;;;;;5021989;28;20579;-46
2022/03/14 05:37:46;;;;;;;15.80;11.10;;;14.30;60.80;;;;;;5021198;28;20275;-48
2022/03/14 05:40:13;;;;;;;17.30;11.93;;;14.20;60.80;;;;;;5018533;28;20444;-47
2022/03/14 05:42:38;;;;;;;14.97;10.93;;;14.20;61.20;;;;;;5013080;28;20919;-46
2022/03/14 05:45:04;;;;;;;15.47;11.90;;;14.30;61.90;;;;;;5022236;28;20580;-45
2022/03/14 05:47:30;;;;;;;15.90;12.07;;;14.30;61.10;;;;;;5023608;28;20194;-47
2022/03/14 05:49:56;;;;;;;21.77;13.13;;;14.30;61.00;;;;;;5020323;28;20871;-45
2022/03/14 05:52:21;;;;;;;17.20;12.90;;;14.20;61.10;;;;;;5023849;28;20189;-46
2022/03/14 05:54:50;;;;;;;13.87;11.83;;;14.20;61.20;;;;;;5024230;28;20679;-45
2022/03/14 05:57:16;;;;;;;15.17;13.43;;;14.20;61.30;;;;;;5021692;28;20666;-46
2022/03/14 05:59:42;;;;;;;16.10;10.13;;;14.20;61.20;;;;;;5017803;28;20483;-45
2022/03/14 06:02:08;;;;;;;12.83;10.17;;;14.30;61.30;;;;;;5021834;28;20444;-46
2022/03/14 06:04:33;;;;;;;13.73;10.97;;;14.50;61.00;;;;;;5019755;28;20772;-45
2022/03/14 06:06:59;;;;;;;24.00;12.93;;;14.70;60.10;;;;;;5022251;28;20565;-45
2022/03/14 06:09:25;;;;;;;14.07;11.17;;;14.80;59.20;;;;;;5021980;28;20193;-45
2022/03/14 06:11:51;;;;;;;20.23;15.00;;;15.00;58.70;;;;;;5019782;28;20600;-45
2022/03/14 06:14:18;;;;;;;17.77;13.40;;;15.10;58.00;;;;;;5019879;28;20591;-46
2022/03/14 06:16:43;;;;;;;17.47;12.30;;;15.20;57.70;;;;;;5017763;28;20444;-46
2022/03/14 06:19:09;;;;;;;15.63;10.80;;;15.20;57.50;;;;;;5017988;28;20458;-46
2022/03/14 06:21:35;;;;;;;16.87;10.10;;;15.20;57.70;;;;;;5017936;28;20200;-45
2022/03/14 06:24:04;;;;;;;10.77;8.83;;;15.20;57.90;;;;;;5020801;28;20632;-47
2022/03/14 06:26:29;;;;;;;9.93;8.20;;;15.30;58.10;;;;;;5023641;28;20442;-45
2022/03/14 06:28:55;;;;;;;8.50;7.30;;;15.40;58.00;;;;;;5031058;28;20431;-45
2022/03/14 06:31:21;;;;;;;11.27;8.43;;;15.40;57.60;;;;;;5024747;28;20239;-47
2022/03/14 06:33:49;;;;;;;7.20;4.80;;;15.40;57.90;;;;;;5023383;28;20214;-45
2022/03/14 06:36:14;;;;;;;8.37;5.73;;;15.40;56.90;;;;;;5020457;28;20194;-45
2022/03/14 06:38:40;;;;;;;5.83;4.73;;;15.40;56.60;;;;;;5030135;28;20783;-46
2022/03/14 06:41:07;;;;;;;5.57;3.67;;;15.40;56.50;;;;;;5020678;28;20193;-45
2022/03/14 06:43:33;;;;;;;5.60;3.50;;;15.30;56.20;;;;;;5025998;28;20888;-49
2022/03/14 06:45:58;;;;;;;3.50;2.83;;;15.30;56.10;;;;;;5013452;28;20451;-46
2022/03/14 06:48:24;;;;;;;2.43;2.20;;;15.30;55.70;;;;;;5017480;28;20279;-47
2022/03/14 06:50:50;;;;;;;2.20;1.80;;;15.40;55.00;;;;;;5019127;28;20212;-46
2022/03/14 06:53:17;;;;;;;1.87;1.57;;;15.20;54.40;;;;;;5017484;28;20198;-45
2022/03/14 06:55:43;;;;;;;2.87;1.57;;;15.30;54.50;;;;;;5025604;28;20201;-46
2022/03/14 06:58:08;;;;;;;1.20;0.90;;;15.20;54.40;;;;;;5027642;28;20435;-45
2022/03/14 07:00:35;;;;;;;4.50;1.47;;;14.80;54.00;;;;;;5018961;28;20201;-46
2022/03/14 07:03:00;;;;;;;1.43;1.27;;;14.50;54.80;;;;;;5015939;28;20194;-46
2022/03/14 07:05:26;;;;;;;3.10;1.20;;;14.30;54.90;;;;;;5027728;28;20782;-45
2022/03/14 07:07:52;;;;;;;2.53;1.23;;;14.50;55.10;;;;;;5029441;28;20193;-46
2022/03/14 07:10:18;;;;;;;2.53;1.10;;;14.70;55.10;;;;;;5027173;28;20194;-46
2022/03/14 07:12:46;;;;;;;3.87;1.40;;;14.90;54.60;;;;;;5026831;28;20427;-46
2022/03/14 07:15:23;;;;;;;1.10;0.87;;;15.00;54.20;;;;;;5034214;28;20228;-45
2022/03/14 07:17:49;;;;;;;2.17;1.20;;;15.10;54.20;;;;;;5053241;28;20446;-45
2022/03/14 07:20:17;;;;;;;1.27;1.03;;;15.20;54.00;;;;;;5051131;28;20508;-46
2022/03/14 07:23:00;;;;;;;1.97;1.17;;;15.30;53.50;;;;;;5052720;28;20461;-46
2022/03/14 07:25:31;;;;;;;2.73;1.27;;;15.60;53.20;;;;;;5052360;28;20538;-45
2022/03/14 07:28:00;;;;;;;1.97;1.10;;;15.80;52.50;;;;;;5052961;28;20435;-46
2022/03/14 07:30:26;;;;;;;1.77;1.10;;;15.90;51.90;;;;;;5052535;28;20583;-45
2022/03/14 07:32:52;;;;;;;2.00;1.07;;;15.80;51.60;;;;;;5052509;28;20908;-45
2022/03/14 07:35:19;;;;;;;1.33;1.10;;;15.90;51.40;;;;;;5052277;28;20435;-46
2022/03/14 07:37:47;;;;;;;1.33;1.10;;;16.00;50.60;;;;;;5052785;28;20430;-46
2022/03/14 07:40:14;;;;;;;2.17;1.03;;;16.10;50.70;;;;;;5052058;28;20458;-46
2022/03/14 07:42:45;;;;;;;2.10;0.93;;;16.20;50.70;;;;;;5042289;28;20464;-46
2022/03/14 07:45:14;;;;;;;1.00;0.90;;;16.40;50.60;;;;;;5032093;28;20476;-46
2022/03/14 07:47:40;;;;;;;2.13;1.20;;;16.50;50.00;;;;;;5031238;28;20420;-46
2022/03/14 07:50:08;;;;;;;2.00;0.90;;;16.30;49.20;;;;;;5031923;28;20432;-46
2022/03/14 07:52:34;;;;;;;1.63;0.90;;;16.10;49.70;;;;;;5032067;28;20443;-46
2022/03/14 07:55:00;;;;;;;3.17;1.20;;;16.40;50.30;;;;;;5031748;28;20436;-46
2022/03/14 07:57:26;;;;;;;2.13;1.30;;;16.60;49.00;;;;;;5032810;28;20433;-49
2022/03/14 07:59:52;;;;;;;5.53;1.20;;;16.90;49.50;;;;;;5031938;28;20315;-47
2022/03/14 08:02:18;;;;;;;5.63;1.07;;;17.00;48.70;;;;;;5031816;28;20535;-45
2022/03/14 08:04:43;;;;;;;2.63;1.30;;;16.60;47.30;;;;;;5031761;28;20224;-46
2022/03/14 08:07:09;;;;;;;7.07;1.20;;;16.60;47.90;;;;;;5032496;28;20427;-46
2022/03/14 08:09:35;;;;;;;1.00;0.83;;;16.60;48.20;;;;;;5031714;28;20193;-46
2022/03/14 08:12:04;;;;;;;1.60;1.40;;;16.60;48.00;;;;;;5032313;28;20262;-46
2022/03/14 08:14:30;;;;;;;1.47;0.93;;;16.50;48.20;;;;;;5029782;28;20419;-49
2022/03/14 08:16:56;;;;;;;3.67;1.10;;;16.30;47.90;;;;;;5031147;28;20427;-46
2022/03/14 08:19:22;;;;;;;2.37;1.67;;;15.80;49.20;;;;;;5030058;28;20518;-47
2022/03/14 08:21:47;;;;;;;1.83;1.53;;;15.40;49.20;;;;;;5031812;28;20280;-48
2022/03/14 08:24:14;;;;;;;1.50;0.83;;;15.00;50.20;;;;;;5030793;28;20228;-47
2022/03/14 08:26:40;;;;;;;3.67;1.40;;;15.00;50.40;;;;;;5032130;28;20206;-47
2022/03/14 08:29:06;;;;;;;1.80;1.07;;;15.10;50.90;;;;;;5031008;28;20918;-46
2022/03/14 08:31:32;;;;;;;1.63;0.90;;;14.70;50.50;;;;;;5031860;28;20440;-48
2022/03/14 08:33:58;;;;;;;3.40;1.13;;;14.40;51.90;;;;;;5031052;28;20430;-47
2022/03/14 08:36:23;;;;;;;1.70;1.03;;;14.60;52.90;;;;;;5031855;28;20208;-46
2022/03/14 08:38:49;;;;;;;3.30;1.10;;;14.70;51.60;;;;;;5030887;28;20246;-46
2022/03/14 08:41:16;;;;;;;5.93;1.43;;;14.80;52.00;;;;;;5030055;28;20201;-46
2022/03/14 08:43:46;;;;;;;4.13;1.47;;;14.90;51.70;;;;;;5030633;28;20224;-46
2022/03/14 08:46:15;;;;;;;3.00;1.00;;;14.70;51.20;;;;;;5031768;28;20428;-48
2022/03/14 08:48:41;;;;;;;2.60;1.27;;;14.70;51.80;;;;;;5030899;28;20796;-46
2022/03/14 08:51:07;;;;;;;3.30;1.10;;;14.80;51.20;;;;;;5031231;28;20481;-45
2022/03/14 08:53:33;;;;;;;4.10;1.00;;;14.70;50.80;;;;;;5030311;28;21194;-46
2022/03/14 08:56:01;;;;;;;1.80;1.10;;;14.80;51.50;;;;;;5031529;28;20207;-48
2022/03/14 08:58:29;;;;;;;4.83;1.30;;;14.90;50.00;;;;;;5030808;28;20452;-46
2022/03/14 09:00:55;;;;;;;2.60;0.90;;;14.50;49.30;;;;;;5030830;28;20990;-46
2022/03/14 09:03:21;;;;;;;3.60;1.10;;;14.50;49.60;;;;;;5030171;28;20506;-48
2022/03/14 09:05:47;;;;;;;4.23;1.33;;;14.70;49.30;;;;;;5031356;28;20428;-46
2022/03/14 09:08:12;;;;;;;2.37;0.97;;;14.60;49.10;;;;;;5029248;28;20197;-46
2022/03/14 09:10:39;;;;;;;8.50;1.10;;;14.50;47.50;;;;;;5029497;28;20288;-45
2022/03/14 09:13:05;;;;;;;4.03;1.50;;;14.30;47.60;;;;;;5030691;28;20197;-45
2022/03/14 09:15:30;;;;;;;6.33;1.83;;;14.30;48.50;;;;;;5030567;28;20983;-46
2022/03/14 09:17:59;;;;;;;3.13;1.07;;;13.90;47.60;;;;;;5030998;28;20592;-45
2022/03/14 09:20:26;;;;;;;5.87;1.30;;;13.50;47.30;;;;;;5029933;28;20237;-46
2022/03/14 09:22:52;;;;;;;2.53;1.20;;;13.40;48.00;;;;;;5030682;28;20430;-46
2022/03/14 09:25:19;;;;;;;2.90;0.93;;;13.40;48.70;;;;;;5030225;28;20490;-46
2022/03/14 09:27:45;;;;;;;4.13;1.20;;;13.40;48.00;;;;;;5030609;28;20950;-46
2022/03/14 09:30:12;;;;;;;1.93;0.80;;;13.40;47.20;;;;;;5029850;28;20482;-47
2022/03/14 09:32:39;;;;;;;5.47;1.17;;;13.50;47.30;;;;;;5030202;28;20502;-46
2022/03/14 09:35:06;;;;;;;4.37;1.30;;;13.60;47.50;;;;;;5028987;28;20460;-46
2022/03/14 09:37:32;;;;;;;3.33;0.80;;;13.40;46.90;;;;;;5030724;28;20432;-45
2022/03/14 09:39:57;;;;;;;2.93;1.00;;;13.60;47.50;;;;;;5030559;28;20440;-46
2022/03/14 09:42:24;;;;;;;2.50;1.07;;;13.70;47.40;;;;;;5029906;28;20443;-46
2022/03/14 09:44:54;;;;;;;5.90;1.03;;;14.10;47.50;;;;;;5029760;28;20233;-46
2022/03/14 09:47:23;;;;;;;3.27;1.30;;;14.40;47.00;;;;;;5030426;28;20446;-46
2022/03/14 09:49:52;;;;;;;2.43;1.03;;;14.70;45.40;;;;;;5029775;28;20943;-45
2022/03/14 09:52:18;;;;;;;4.43;0.93;;;15.10;45.00;;;;;;5030045;28;20439;-46
2022/03/14 09:54:45;;;;;;;1.87;1.23;;;15.20;44.70;;;;;;5030049;28;20435;-46
2022/03/14 09:57:10;;;;;;;1.97;0.90;;;15.10;43.70;;;;;;5030502;28;20434;-47
2022/03/14 09:59:37;;;;;;;4.13;1.10;;;15.20;43.50;;;;;;5029949;28;20428;-47
2022/03/14 10:02:03;;;;;;;3.30;0.97;;;15.40;43.90;;;;;;5029371;28;20196;-48
2022/03/14 10:04:29;;;;;;;4.10;1.17;;;15.70;42.90;;;;;;5028778;28;20487;-46
2022/03/14 10:06:55;;;;;;;2.20;0.87;;;16.00;43.20;;;;;;5030332;28;20799;-46
2022/03/14 10:09:21;;;;;;;1.90;0.93;;;16.30;42.80;;;;;;5029440;28;20760;-47
2022/03/14 10:11:46;;;;;;;5.53;1.87;;;16.60;41.30;;;;;;5030269;28;20193;-48
2022/03/14 10:14:17;;;;;;;1.70;1.07;;;16.80;40.40;;;;;;5029341;28;20204;-46
2022/03/14 10:16:44;;;;;;;6.07;1.10;;;16.60;41.00;;;;;;5020910;28;20205;-45
2022/03/14 10:19:10;;;;;;;7.23;1.13;;;16.80;41.00;;;;;;5025671;28;20771;-50
2022/03/14 10:21:38;;;;;;;1.73;1.00;;;17.10;40.00;;;;;;5030010;28;20420;-46
2022/03/14 10:24:12;;;;;;;5.83;1.60;;;17.10;39.30;;;;;;5029151;28;20487;-46
2022/03/14 10:26:41;;;;;;;2.67;1.20;;;17.30;39.00;;;;;;5030264;28;20423;-46
2022/03/14 10:29:12;;;;;;;1.63;1.00;;;17.20;38.70;;;;;;5029333;28;20452;-45
2022/03/14 10:31:40;;;;;;;2.17;0.97;;;17.40;38.70;;;;;;5028920;28;20431;-47
2022/03/14 10:34:18;;;;;;;4.80;1.10;;;17.30;38.80;;;;;;5029100;28;20428;-46
2022/03/14 10:37:00;;;;;;;3.20;1.23;;;17.40;38.50;;;;;;5030027;28;20438;-46
2022/03/14 10:39:25;;;;;;;4.23;1.37;;;17.30;38.70;;;;;;5029906;28;20419;-46
2022/03/14 10:42:00;;;;;;;5.23;1.10;;;17.40;38.60;;;;;;5033664;28;20439;-46
2022/03/14 10:44:25;;;;;;;3.07;1.20;;;17.70;38.00;;;;;;5033075;28;20291;-48
2022/03/14 10:46:51;;;;;;;3.83;1.30;;;17.90;37.90;;;;;;5033643;28;20645;-48
2022/03/14 10:49:17;;;;;;;2.77;1.00;;;17.90;37.20;;;;;;5033037;28;20193;-46
2022/03/14 10:51:57;;;;;;;4.37;1.50;;;17.60;37.30;;;;;;5032444;28;20556;-46
2022/03/14 10:54:23;;;;;;;5.43;1.20;;;17.80;38.40;;;;;;5033068;28;20795;-45
2022/03/14 10:57:07;;;;;;;1.90;1.13;;;17.80;36.90;;;;;;5031949;28;20435;-45
2022/03/14 10:59:35;;;;;;;2.80;1.10;;;17.80;36.90;;;;;;5033243;28;20446;-46
2022/03/14 11:02:03;;;;;;;2.70;1.20;;;17.90;37.90;;;;;;5033240;28;20424;-46
2022/03/14 11:04:28;;;;;;;2.73;1.10;;;18.10;37.20;;;;;;5032706;28;20566;-46
2022/03/14 11:07:00;;;;;;;1.93;1.17;;;18.50;37.00;;;;;;5033379;28;20520;-45
2022/03/14 11:09:45;;;;;;;2.00;1.07;;;18.60;35.70;;;;;;5032951;28;20252;-46
2022/03/14 11:12:14;;;;;;;4.00;1.43;;;18.50;35.20;;;;;;5032742;28;20428;-46
2022/03/14 11:14:40;;;;;;;3.07;1.13;;;18.30;35.90;;;;;;5032591;28;20785;-46
2022/03/14 11:17:14;;;;;;;2.03;1.20;;;18.30;35.70;;;;;;5032837;28;20424;-46
2022/03/14 11:19:41;;;;;;;3.00;1.30;;;18.20;35.40;;;;;;5032180;28;20475;-46
2022/03/14 11:22:12;;;;;;;3.93;1.00;;;18.40;35.70;;;;;;5032806;28;20443;-45
2022/03/14 11:24:55;;;;;;;2.70;1.20;;;18.60;36.30;;;;;;5031035;28;20484;-46
2022/03/14 11:27:26;;;;;;;5.87;1.77;;;18.70;34.70;;;;;;5032976;28;20436;-46
2022/03/14 11:29:54;;;;;;;4.20;1.67;;;18.90;35.20;;;;;;5032441;28;20446;-46
2022/03/14 11:32:21;;;;;;;1.00;0.83;;;18.90;34.50;;;;;;5032417;28;20934;-46
2022/03/14 11:34:48;;;;;;;1.53;0.80;;;18.70;34.70;;;;;;5032414;28;20493;-46
2022/03/14 11:37:15;;;;;;;3.13;0.97;;;18.70;34.90;;;;;;5032898;28;20416;-47
2022/03/14 11:39:42;;;;;;;4.47;1.60;;;18.90;34.90;;;;;;5032732;28;20420;-46
2022/03/14 11:42:08;;;;;;;4.23;1.00;;;19.30;34.40;;;;;;5032129;28;20424;-45
2022/03/14 11:44:34;;;;;;;2.67;0.93;;;19.60;35.40;;;;;;5032115;28;20517;-47
2022/03/14 11:47:01;;;;;;;3.13;0.97;;;20.00;33.20;;;;;;5032685;28;20216;-47
2022/03/14 11:49:28;;;;;;;4.10;1.10;;;20.10;33.10;;;;;;5032431;28;20511;-46
2022/03/14 11:52:12;;;;;;;3.43;1.63;;;20.10;33.00;;;;;;5030359;28;20428;-46
2022/03/14 11:55:02;;;;;;;3.10;1.07;;;20.00;32.40;;;;;;5031978;28;20444;-46
2022/03/14 11:57:44;;;;;;;2.97;1.20;;;19.70;32.60;;;;;;5032666;28;20467;-46
2022/03/14 12:00:21;;;;;;;2.23;0.90;;;19.70;33.40;;;;;;5031796;28;20448;-46
2022/03/14 12:02:48;;;;;;;2.00;0.80;;;19.80;33.90;;;;;;5032349;28;20447;-47
2022/03/14 12:05:20;;;;;;;1.60;0.80;;;20.00;32.90;;;;;;5031983;28;20480;-46
2022/03/14 12:07:45;;;;;;;4.00;1.30;;;20.20;32.90;;;;;;5032361;28;20455;-46
2022/03/14 12:10:37;;;;;;;2.73;1.00;;;20.30;33.20;;;;;;5031639;28;20844;-46
2022/03/14 12:13:03;;;;;;;3.63;1.30;;;20.20;33.40;;;;;;5029751;28;20213;-47
2022/03/14 12:15:48;;;;;;;2.77;1.10;;;20.20;33.20;;;;;;5031674;28;20432;-46
2022/03/14 12:18:22;;;;;;;4.30;1.50;;;20.30;32.90;;;;;;5018505;28;20436;-46
2022/03/14 12:20:49;;;;;;;2.50;0.90;;;20.20;32.90;;;;;;5031569;28;20475;-46
2022/03/14 12:23:32;;;;;;;1.53;1.20;;;20.10;33.00;;;;;;5031178;28;20443;-47
2022/03/14 12:26:21;;;;;;;2.30;1.30;;;20.10;32.90;;;;;;5031996;28;20428;-46
2022/03/14 12:28:47;;;;;;;1.80;1.00;;;20.00;33.80;;;;;;5031391;28;20795;-46
2022/03/14 12:31:15;;;;;;;2.43;0.90;;;20.10;33.70;;;;;;5032085;28;20432;-46
2022/03/14 12:33:44;;;;;;;1.77;1.10;;;20.00;33.30;;;;;;5030769;28;20649;-45
2022/03/14 12:36:33;;;;;;;2.60;0.93;;;20.10;32.50;;;;;;5031661;28;20432;-47
2022/03/14 12:39:12;;;;;;;2.00;1.03;;;20.30;32.50;;;;;;5025937;28;20940;-47